Time;durP1;ratioP1;P1;durP2;ratioP2;P2;SDS_P1;SDS_P2;PMS_P1;PMS_P2;Temp;Humidity;BMP_temperature;BMP_pressure;BME280_temperature;BME280_humidity;BME280_pressure;Samples;Min_cycle;Max_cycle;Signal;HPM_P1;HPM_P2
2024/01/10 00:00:32;;;;;;;98.43;43.03;;;;;;;-144.73;100.00;54586.28;5051685;28;20016;-72
2024/01/10 00:03:00;;;;;;;111.03;49.37;;;;;;;-144.73;100.00;54563.69;5032274;28;20021;-73
2024/01/10 00:05:25;;;;;;;115.47;47.20;;;;;;;-144.73;100.00;54584.22;5036010;28;20027;-73
2024/01/10 00:07:50;;;;;;;107.93;45.83;;;;;;;-144.73;100.00;54580.13;5030834;28;20033;-73
2024/01/10 00:10:16;;;;;;;103.37;47.10;;;;;;;-144.73;100.00;54596.53;5035243;28;20051;-72
2024/01/10 00:12:44;;;;;;;108.30;47.57;;;;;;;-144.73;100.00;54563.69;5035062;28;20499;-73
2024/01/10 00:15:09;;;;;;;91.10;41.17;;;;;;;-144.73;100.00;54621.16;5034552;28;20019;-74
2024/01/10 00:17:35;;;;;;;98.83;42.93;;;;;;;-144.73;100.00;54571.91;5030655;28;20301;-72
2024/01/10 00:20:00;;;;;;;98.60;45.27;;;;;;;-144.73;100.00;54563.69;5035197;28;20076;-72
2024/01/10 00:22:25;;;;;;;95.20;43.33;;;;;;;-144.73;100.00;54580.13;5031638;28;20512;-73
2024/01/10 00:24:51;;;;;;;95.97;40.83;;;;;;;-144.73;100.00;54600.63;5054817;28;20147;-74
2024/01/10 00:27:16;;;;;;;94.40;40.37;;;;;;;-144.73;100.00;54625.28;5035868;28;20031;-72
2024/01/10 00:29:41;;;;;;;88.60;39.47;;;;;;;-144.73;100.00;54580.13;5028322;28;20550;-72
2024/01/10 00:32:07;;;;;;;94.40;42.73;;;;;;;-144.73;100.00;54608.84;5034917;28;20037;-72
2024/01/10 00:34:32;;;;;;;96.37;45.10;;;;;;;-144.73;100.00;54555.47;5035026;28;20055;-72
2024/01/10 00:36:57;;;;;;;107.57;43.43;;;;;;;-144.73;100.00;54563.69;5034755;28;20061;-72
2024/01/10 00:39:22;;;;;;;91.07;41.30;;;;;;;-144.73;100.00;54596.53;5053563;28;20025;-72
2024/01/10 00:41:48;;;;;;;97.30;42.93;;;;;;;-144.73;100.00;54588.31;5052338;28;20036;-72
2024/01/10 00:44:13;;;;;;;98.80;41.87;;;;;;;-144.73;100.00;54592.44;5032747;28;20064;-73
2024/01/10 00:46:38;;;;;;;88.40;40.07;;;;;;;-144.73;100.00;54592.44;5050865;28;20330;-72
2024/01/10 00:49:04;;;;;;;102.83;44.47;;;;;;;-144.73;100.00;54588.31;5030621;28;20026;-73
2024/01/10 00:51:29;;;;;;;86.20;39.87;;;;;;;-144.73;100.00;54588.31;5034494;28;20090;-73
2024/01/10 00:53:55;;;;;;;88.13;39.03;;;;;;;-144.73;100.00;54600.63;5034328;28;20127;-73
2024/01/10 00:56:20;;;;;;;86.30;38.13;;;;;;;-144.73;100.00;54569.84;5033942;28;20500;-72
2024/01/10 00:58:45;;;;;;;93.03;41.83;;;;;;;-144.73;100.00;54543.16;5053001;28;20047;-73
2024/01/10 01:01:11;;;;;;;102.60;43.30;;;;;;;-144.73;100.00;54592.44;5033469;28;20029;-72
2024/01/10 01:03:36;;;;;;;109.60;44.00;;;;;;;-144.73;100.00;54555.47;5034796;28;20120;-72
2024/01/10 01:06:01;;;;;;;96.30;41.70;;;;;;;-144.73;100.00;54584.22;5051385;28;20500;-73
2024/01/10 01:08:27;;;;;;;104.47;44.73;;;;;;;-144.73;100.00;54596.53;5052728;28;20009;-73
2024/01/10 01:10:52;;;;;;;99.90;43.03;;;;;;;-144.73;100.00;54551.38;5034007;28;20056;-73
2024/01/10 01:13:17;;;;;;;103.40;44.60;;;;;;;-144.73;100.00;54580.13;5034540;28;20028;-73
2024/01/10 01:15:43;;;;;;;91.23;38.40;;;;;;;-144.73;100.00;54584.22;5034059;28;20028;-72
2024/01/10 01:18:09;;;;;;;97.50;41.80;;;;;;;-144.73;100.00;54555.47;5051545;28;20085;-72
2024/01/10 01:20:35;;;;;;;97.60;42.40;;;;;;;-144.73;100.00;54623.22;5034278;28;20017;-73
2024/01/10 01:23:00;;;;;;;127.17;47.47;;;;;;;-144.73;100.00;54600.63;5051982;28;20023;-73
2024/01/10 01:25:29;;;;;;;126.40;49.40;;;;;;;-144.73;100.00;54608.84;5034249;28;20017;-72
2024/01/10 01:27:54;;;;;;;123.33;49.90;;;;;;;-144.73;100.00;54547.28;5033672;28;20033;-73
2024/01/10 01:30:22;;;;;;;129.93;51.90;;;;;;;-144.73;100.00;54608.84;5051445;28;20031;-73
2024/01/10 01:32:47;;;;;;;153.67;54.20;;;;;;;-144.73;100.00;54588.31;5033472;28;20033;-72
2024/01/10 01:35:13;;;;;;;115.17;44.43;;;;;;;-144.73;100.00;54608.84;5034189;28;20031;-72
2024/01/10 01:37:38;;;;;;;147.13;45.97;;;;;;;-144.73;100.00;54584.22;5040123;28;20128;-75
2024/01/10 01:40:04;;;;;;;122.73;41.10;;;;;;;-144.73;100.00;54637.59;5034987;28;20025;-73
2024/01/10 01:42:30;;;;;;;136.10;45.33;;;;;;;-144.73;100.00;54571.91;5032887;28;20033;-73
2024/01/10 01:44:55;;;;;;;194.27;50.57;;;;;;;-144.73;100.00;54600.63;5051078;28;20035;-73
2024/01/10 01:47:21;;;;;;;184.00;52.00;;;;;;;-144.73;100.00;54584.22;5033504;28;20076;-74
2024/01/10 01:49:47;;;;;;;200.27;48.97;;;;;;;-144.73;100.00;54600.63;5029585;28;20072;-74
2024/01/10 01:52:12;;;;;;;158.83;44.20;;;;;;;-144.73;100.00;54580.13;5032951;28;20105;-72
2024/01/10 01:54:38;;;;;;;148.60;46.03;;;;;;;-144.73;100.00;54629.38;5065596;28;20039;-73
2024/01/10 01:57:04;;;;;;;237.23;54.80;;;;;;;-144.73;100.00;54592.44;5034968;28;20120;-73
2024/01/10 01:59:29;;;;;;;199.80;43.53;;;;;;;-144.73;100.00;54596.53;5021098;28;20077;-73
2024/01/10 02:01:58;;;;;;;160.80;46.27;;;;;;;-144.73;100.00;54573.97;5049200;28;20033;-71
2024/01/10 02:04:23;;;;;;;142.90;45.60;;;;;;;-144.73;100.00;54604.75;5039765;28;20042;-72
2024/01/10 02:06:49;;;;;;;153.70;50.50;;;;;;;-144.73;100.00;54608.84;5039855;28;20030;-74
2024/01/10 02:09:17;;;;;;;188.67;43.40;;;;;;;-144.73;100.00;54608.84;5032633;28;20027;-72
2024/01/10 02:11:43;;;;;;;189.27;49.87;;;;;;;-144.73;100.00;54610.91;5033797;28;20044;-73
2024/01/10 02:14:10;;;;;;;158.67;45.60;;;;;;;-144.73;100.00;54604.75;5033448;28;20028;-72
2024/01/10 02:16:35;;;;;;;132.97;42.80;;;;;;;-144.73;100.00;54604.75;5032712;28;20128;-73
2024/01/10 02:19:20;;;;;;;139.17;46.97;;;;;;;-144.73;100.00;54588.31;5034248;28;20049;-73
2024/01/10 02:21:46;;;;;;;175.47;45.27;;;;;;;-144.73;100.00;54571.91;5033191;28;20033;-71
2024/01/10 02:24:11;;;;;;;125.27;43.33;;;;;;;-144.73;100.00;54604.75;5033002;28;20144;-72
2024/01/10 02:26:37;;;;;;;116.70;38.63;;;;;;;-144.73;100.00;54631.44;5032953;28;20025;-72
2024/01/10 02:29:02;;;;;;;174.50;44.73;;;;;;;-144.73;100.00;54600.63;5033074;28;20107;-71
2024/01/10 02:31:31;;;;;;;105.83;38.37;;;;;;;-144.73;100.00;54604.75;5032924;28;20033;-72
2024/01/10 02:33:56;;;;;;;121.50;38.77;;;;;;;-144.73;100.00;54592.44;5033291;28;20021;-73
2024/01/10 02:36:21;;;;;;;100.53;39.00;;;;;;;-144.73;100.00;54588.31;5022070;28;20133;-73
2024/01/10 02:38:47;;;;;;;106.30;37.83;;;;;;;-144.73;100.00;54617.06;5030061;28;20060;-72
2024/01/10 02:41:13;;;;;;;102.80;36.77;;;;;;;-144.73;100.00;54612.97;5022584;28;20050;-72
2024/01/10 02:43:39;;;;;;;114.70;39.00;;;;;;;-144.73;100.00;54617.06;5036748;28;20446;-71
2024/01/10 02:46:04;;;;;;;86.00;34.13;;;;;;;-144.73;100.00;54584.22;5031715;28;20116;-73
2024/01/10 02:48:29;;;;;;;72.67;30.27;;;;;;;-144.73;100.00;54604.75;5031147;28;20055;-73
2024/01/10 02:50:55;;;;;;;89.97;32.80;;;;;;;-144.73;100.00;54557.53;5046802;28;20057;-74
2024/01/10 02:53:21;;;;;;;96.43;35.33;;;;;;;-144.73;100.00;54592.44;5032992;28;20009;-73
2024/01/10 02:55:47;;;;;;;85.73;32.23;;;;;;;-144.73;100.00;54571.91;5032466;28;20044;-72
2024/01/10 02:58:13;;;;;;;90.07;34.83;;;;;;;-144.73;100.00;54584.22;5033034;28;20021;-73
2024/01/10 03:00:38;;;;;;;80.90;32.60;;;;;;;-144.73;100.00;54584.22;5032734;28;20047;-72
2024/01/10 03:03:04;;;;;;;86.90;35.60;;;;;;;-144.73;100.00;54573.97;5032604;28;20040;-73
2024/01/10 03:05:29;;;;;;;98.33;38.40;;;;;;;-144.73;100.00;54612.97;5033262;28;20031;-73
2024/01/10 03:07:55;;;;;;;86.63;36.23;;;;;;;-144.73;100.00;54612.97;5033836;28;20021;-73
2024/01/10 03:10:20;;;;;;;102.43;37.20;;;;;;;-144.73;100.00;54617.06;5034811;28;20059;-73
2024/01/10 03:12:48;;;;;;;83.37;35.70;;;;;;;-144.73;100.00;54619.13;5036518;28;20059;-72
2024/01/10 03:15:16;;;;;;;101.60;38.77;;;;;;;-144.73;100.00;54596.53;5036714;28;20036;-74
2024/01/10 03:17:41;;;;;;;96.13;40.20;;;;;;;-144.73;100.00;54617.06;5035928;28;20033;-73
2024/01/10 03:20:08;;;;;;;102.53;39.97;;;;;;;-144.73;100.00;54621.16;5037932;28;20029;-72
2024/01/10 03:22:34;;;;;;;97.47;37.90;;;;;;;-144.73;100.00;54612.97;5035980;28;20148;-74
2024/01/10 03:24:59;;;;;;;103.20;39.93;;;;;;;-144.73;100.00;54625.28;5036486;28;20029;-72
2024/01/10 03:27:25;;;;;;;96.43;37.10;;;;;;;-144.73;100.00;54588.31;5036481;28;20080;-72
2024/01/10 03:29:50;;;;;;;107.30;38.80;;;;;;;-144.73;100.00;54617.06;5036886;28;20021;-73
2024/01/10 03:32:15;;;;;;;96.10;36.83;;;;;;;-144.73;100.00;54584.22;5035996;28;20045;-71
2024/01/10 03:34:42;;;;;;;98.80;37.27;;;;;;;-144.73;100.00;54580.13;5036231;28;20033;-72
2024/01/10 03:37:07;;;;;;;93.53;36.83;;;;;;;-144.73;100.00;54617.06;5035803;28;20033;-71
2024/01/10 03:39:33;;;;;;;124.10;42.90;;;;;;;-144.73;100.00;54645.78;5036495;28;20024;-72
2024/01/10 03:41:58;;;;;;;94.40;37.63;;;;;;;-144.73;100.00;54604.75;5035698;28;20048;-72
2024/01/10 03:44:24;;;;;;;103.53;38.97;;;;;;;-144.73;100.00;54590.38;5034879;28;20032;-73
2024/01/10 03:46:49;;;;;;;108.07;39.60;;;;;;;-144.73;100.00;54584.22;5035883;28;20037;-72
2024/01/10 03:49:14;;;;;;;101.90;36.17;;;;;;;-144.73;100.00;54588.31;5035952;28;20028;-72
2024/01/10 03:51:40;;;;;;;108.60;40.07;;;;;;;-144.73;100.00;54621.16;5038514;28;20143;-72
2024/01/10 03:54:06;;;;;;;101.00;37.67;;;;;;;-144.73;100.00;54567.81;5036295;28;20041;-72
2024/01/10 03:56:31;;;;;;;108.23;39.60;;;;;;;-144.73;100.00;54582.16;5035703;28;20037;-72
2024/01/10 03:58:56;;;;;;;104.37;38.23;;;;;;;-144.73;100.00;54649.91;5036164;28;20028;-72
2024/01/10 04:01:23;;;;;;;98.47;38.43;;;;;;;-144.73;100.00;54625.28;5035520;28;20053;-72
2024/01/10 04:03:48;;;;;;;107.80;39.10;;;;;;;-144.73;100.00;54571.91;5035814;28;20198;-72
2024/01/10 04:06:14;;;;;;;100.63;36.80;;;;;;;-144.73;100.00;54596.53;5035521;28;20057;-72
2024/01/10 04:08:39;;;;;;;108.83;40.13;;;;;;;-144.73;100.00;54588.31;5036123;28;20545;-72
2024/01/10 04:11:05;;;;;;;101.67;36.93;;;;;;;-144.73;100.00;54617.06;5035150;28;20399;-72
2024/01/10 04:13:30;;;;;;;111.40;39.67;;;;;;;-144.73;100.00;54580.13;5035754;28;20021;-72
2024/01/10 04:15:55;;;;;;;102.67;35.93;;;;;;;-144.73;100.00;54573.97;5035112;28;20064;-71
2024/01/10 04:18:21;;;;;;;111.50;41.33;;;;;;;-144.73;100.00;54617.06;5035876;28;20025;-73
2024/01/10 04:20:47;;;;;;;94.93;38.13;;;;;;;-144.73;100.00;54596.53;5035411;28;20084;-71
2024/01/10 04:23:13;;;;;;;98.67;36.07;;;;;;;-144.73;100.00;54584.22;5034425;28;20495;-72
2024/01/10 04:25:38;;;;;;;96.53;38.00;;;;;;;-144.73;100.00;54641.69;5035471;28;20061;-72
2024/01/10 04:28:04;;;;;;;95.73;37.57;;;;;;;-144.73;100.00;54580.13;5035353;28;20060;-72
2024/01/10 04:30:30;;;;;;;96.50;37.47;;;;;;;-144.73;100.00;54569.84;5035066;28;20404;-72
2024/01/10 04:32:55;;;;;;;94.20;36.87;;;;;;;-144.73;100.00;54629.38;5035139;28;20028;-72
2024/01/10 04:35:20;;;;;;;121.97;39.80;;;;;;;-144.73;100.00;54612.97;5035589;28;20029;-73
2024/01/10 04:37:46;;;;;;;178.33;73.93;;;;;;;-144.73;100.00;54637.59;5034951;28;20048;-72
2024/01/10 04:40:11;;;;;;;97.83;37.00;;;;;;;-144.73;100.00;54604.75;5034467;28;20171;-72
2024/01/10 04:42:37;;;;;;;107.90;39.53;;;;;;;-144.73;100.00;54604.75;5038277;28;20036;-72
2024/01/10 04:45:02;;;;;;;102.67;38.00;;;;;;;-144.73;100.00;54561.63;5029208;28;20032;-72
2024/01/10 04:47:28;;;;;;;97.63;38.30;;;;;;;-144.73;100.00;54594.47;5011595;28;20044;-72
2024/01/10 04:49:53;;;;;;;117.87;42.03;;;;;;;-144.73;100.00;54641.69;5016147;28;20112;-72
2024/01/10 04:52:18;;;;;;;102.83;39.90;;;;;;;-144.73;100.00;54592.44;5030665;28;20041;-72
2024/01/10 04:54:44;;;;;;;109.73;41.17;;;;;;;-144.73;100.00;54600.63;5035098;28;20028;-72
2024/01/10 04:57:09;;;;;;;103.90;41.33;;;;;;;-144.73;100.00;54637.59;5034126;28;20131;-72
2024/01/10 04:59:34;;;;;;;104.70;42.93;;;;;;;-144.73;100.00;54608.84;5034955;28;20087;-72
2024/01/10 05:02:00;;;;;;;89.63;36.53;;;;;;;-144.73;100.00;54584.22;5033837;28;20037;-72
2024/01/10 05:04:25;;;;;;;100.47;37.87;;;;;;;-144.73;100.00;54617.06;5034671;28;20160;-72
2024/01/10 05:06:51;;;;;;;85.40;35.60;;;;;;;-144.73;100.00;54608.84;5033482;28;20504;-72
2024/01/10 05:09:17;;;;;;;98.30;36.17;;;;;;;-144.73;100.00;54631.44;5030591;28;20037;-71
2024/01/10 05:11:42;;;;;;;87.63;34.37;;;;;;;-144.73;100.00;54612.97;5033269;28;20025;-71
2024/01/10 05:14:08;;;;;;;92.07;36.43;;;;;;;-144.73;100.00;54596.53;5031260;28;20039;-73
2024/01/10 05:16:33;;;;;;;84.57;33.77;;;;;;;-144.73;100.00;54617.06;5033997;28;20048;-71
2024/01/10 05:19:02;;;;;;;75.17;31.53;;;;;;;-144.73;100.00;54612.97;5034485;28;20021;-72
2024/01/10 05:21:29;;;;;;;83.37;35.07;;;;;;;-144.73;100.00;54674.53;5033757;28;20029;-72
2024/01/10 05:23:57;;;;;;;74.67;31.83;;;;;;;-144.73;100.00;54612.97;5034336;28;20017;-72
2024/01/10 05:26:23;;;;;;;80.93;31.13;;;;;;;-144.73;100.00;54641.69;5033448;28;20106;-72
2024/01/10 05:28:48;;;;;;;85.93;33.17;;;;;;;-144.73;100.00;54571.91;5033946;28;20017;-72
2024/01/10 05:31:13;;;;;;;71.13;29.17;;;;;;;-144.73;100.00;54608.84;5033464;28;20025;-72
2024/01/10 05:33:39;;;;;;;68.20;29.47;;;;;;;-144.73;100.00;54656.06;5033258;28;20029;-72
2024/01/10 05:36:04;;;;;;;63.50;28.67;;;;;;;-144.73;100.00;54637.59;5033487;28;20036;-72
2024/01/10 05:38:30;;;;;;;60.23;28.40;;;;;;;-144.73;100.00;54606.78;5034392;28;20075;-71
2024/01/10 05:40:55;;;;;;;57.93;24.77;;;;;;;-144.73;100.00;54615.00;5033550;28;20132;-71
2024/01/10 05:43:21;;;;;;;61.87;27.47;;;;;;;-144.73;100.00;54596.53;5033858;28;20025;-72
2024/01/10 05:45:47;;;;;;;54.67;24.23;;;;;;;-144.73;100.00;54621.16;5030184;28;20017;-71
2024/01/10 05:48:12;;;;;;;48.80;22.80;;;;;;;-144.73;100.00;54621.16;5034941;28;20027;-71
2024/01/10 05:50:40;;;;;;;52.07;23.40;;;;;;;-144.73;100.00;54617.06;5032296;28;20479;-71
2024/01/10 05:53:06;;;;;;;53.60;24.80;;;;;;;-144.73;100.00;54608.84;5033256;28;20024;-70
2024/01/10 05:55:31;;;;;;;56.77;26.17;;;;;;;-144.73;100.00;54617.06;5032601;28;20013;-71
2024/01/10 05:57:56;;;;;;;56.93;26.43;;;;;;;-144.73;100.00;54604.75;5033718;28;20480;-73
2024/01/10 06:00:22;;;;;;;50.63;22.07;;;;;;;-144.73;100.00;54645.78;5034494;28;20021;-73
2024/01/10 06:02:47;;;;;;;49.87;24.50;;;;;;;-144.73;100.00;54621.16;5032694;28;20409;-73
2024/01/10 06:05:13;;;;;;;50.53;24.23;;;;;;;-144.73;100.00;54645.78;5033754;28;20028;-72
2024/01/10 06:07:40;;;;;;;52.30;25.33;;;;;;;-144.73;100.00;54615.00;5033170;28;20032;-73
2024/01/10 06:10:06;;;;;;;53.97;26.27;;;;;;;-144.73;100.00;54627.31;5033739;28;20371;-73
2024/01/10 06:12:32;;;;;;;50.60;24.50;;;;;;;-144.73;100.00;54610.91;5032997;28;20043;-73
2024/01/10 06:14:57;;;;;;;53.50;25.23;;;;;;;-144.73;100.00;54645.78;5033482;28;20021;-73
2024/01/10 06:17:23;;;;;;;51.23;22.00;;;;;;;-144.73;100.00;54631.44;5032641;28;20095;-71
2024/01/10 06:19:50;;;;;;;47.47;22.87;;;;;;;-144.73;100.00;54604.75;5033534;28;20438;-72
2024/01/10 06:22:16;;;;;;;46.57;20.90;;;;;;;-144.73;100.00;54617.06;5033004;28;20044;-73
2024/01/10 06:24:42;;;;;;;51.53;20.63;;;;;;;-144.73;100.00;54592.44;5032909;28;20025;-72
2024/01/10 06:27:08;;;;;;;49.87;22.80;;;;;;;-144.73;100.00;54621.16;5032370;28;20083;-72
2024/01/10 06:29:33;;;;;;;51.27;19.80;;;;;;;-144.73;100.00;54625.28;5034495;28;20024;-73
2024/01/10 06:32:01;;;;;;;44.57;20.87;;;;;;;-144.73;100.00;54584.22;5032996;28;20107;-72
2024/01/10 06:34:27;;;;;;;49.50;21.10;;;;;;;-144.73;100.00;54604.75;5032826;28;20021;-72
2024/01/10 06:36:52;;;;;;;41.33;20.47;;;;;;;-144.73;100.00;54637.59;5032622;28;20040;-72
2024/01/10 06:39:19;;;;;;;53.53;23.03;;;;;;;-144.73;100.00;54641.69;5029641;28;20021;-72
2024/01/10 06:41:47;;;;;;;60.67;26.00;;;;;;;-144.73;100.00;54612.97;5032765;28;20048;-72
2024/01/10 06:44:12;;;;;;;48.73;23.77;;;;;;;-144.73;100.00;54604.75;5032100;28;20055;-72
2024/01/10 06:46:37;;;;;;;54.00;24.93;;;;;;;-144.73;100.00;54672.47;5036704;28;20446;-72
2024/01/10 06:49:03;;;;;;;57.97;25.10;;;;;;;-144.73;100.00;54592.44;5037109;28;20024;-73
2024/01/10 06:51:28;;;;;;;56.40;25.60;;;;;;;-144.73;100.00;54651.97;5036919;28;20029;-71
2024/01/10 06:54:00;;;;;;;48.83;21.00;;;;;;;-144.73;100.00;54633.47;5037176;28;20028;-72
2024/01/10 06:56:25;;;;;;;46.73;23.67;;;;;;;-144.73;100.00;54633.47;5022008;28;20037;-72
2024/01/10 06:58:51;;;;;;;44.53;21.87;;;;;;;-144.73;100.00;54592.44;5028564;28;20026;-72
2024/01/10 07:01:16;;;;;;;52.50;23.80;;;;;;;-144.73;100.00;54629.38;5022643;28;20089;-72
2024/01/10 07:03:42;;;;;;;64.07;27.30;;;;;;;-144.73;100.00;54629.38;5037694;28;20041;-72
2024/01/10 07:06:07;;;;;;;56.73;24.80;;;;;;;-144.73;100.00;54608.84;5036278;28;20033;-72
2024/01/10 07:08:33;;;;;;;55.67;27.67;;;;;;;-144.73;100.00;54633.47;5036767;28;20025;-73
2024/01/10 07:10:58;;;;;;;59.40;28.40;;;;;;;-144.73;100.00;54637.59;5035653;28;20028;-73
2024/01/10 07:13:23;;;;;;;57.40;26.33;;;;;;;-144.73;100.00;54592.44;5036843;28;20131;-71
2024/01/10 07:15:50;;;;;;;51.63;25.00;;;;;;;-144.73;100.00;54617.06;5036142;28;20064;-72
2024/01/10 07:18:19;;;;;;;58.57;26.03;;;;;;;-144.73;100.00;54641.69;5036728;28;20017;-73
2024/01/10 07:20:44;;;;;;;54.53;26.00;;;;;;;-144.73;100.00;54637.59;5036289;28;20128;-72
2024/01/10 07:23:10;;;;;;;51.73;23.27;;;;;;;-144.73;100.00;54658.13;5036268;28;20033;-72
2024/01/10 07:25:37;;;;;;;53.83;25.57;;;;;;;-144.73;100.00;54623.22;5036311;28;20079;-72
2024/01/10 07:28:02;;;;;;;54.20;25.60;;;;;;;-144.73;100.00;54670.44;5036622;28;20013;-71
2024/01/10 07:30:32;;;;;;;63.23;24.27;;;;;;;-144.73;100.00;54629.38;5036178;28;20020;-73
2024/01/10 07:32:58;;;;;;;55.47;23.93;;;;;;;-144.73;100.00;54612.97;5035452;28;20074;-73
2024/01/10 07:35:23;;;;;;;51.73;23.03;;;;;;;-144.73;100.00;54629.38;5036411;28;20021;-72
2024/01/10 07:37:48;;;;;;;52.63;25.03;;;;;;;-144.73;100.00;54598.59;5035656;28;20037;-73
2024/01/10 07:40:14;;;;;;;62.27;28.03;;;;;;;-144.73;100.00;54635.53;5036633;28;20025;-73
2024/01/10 07:42:39;;;;;;;68.50;27.70;;;;;;;-144.73;100.00;54654.00;5035321;28;20041;-72
2024/01/10 07:45:05;;;;;;;65.23;25.57;;;;;;;-144.73;100.00;54637.59;5033124;28;20027;-72
2024/01/10 07:47:31;;;;;;;58.90;25.87;;;;;;;-144.73;100.00;54608.84;5035171;28;20025;-72
2024/01/10 07:49:57;;;;;;;55.63;26.00;;;;;;;-144.73;100.00;54617.06;5037527;28;20071;-72
2024/01/10 07:52:23;;;;;;;55.57;26.17;;;;;;;-144.73;100.00;54612.97;5035707;28;20029;-72
2024/01/10 07:54:48;;;;;;;60.80;26.90;;;;;;;-144.73;100.00;54629.38;5035882;28;20057;-71
2024/01/10 07:57:14;;;;;;;55.20;24.67;;;;;;;-144.73;100.00;54588.31;5034305;28;20029;-72
2024/01/10 07:59:39;;;;;;;64.43;25.83;;;;;;;-144.73;100.00;54600.63;5036214;28;20029;-73
2024/01/10 08:02:05;;;;;;;61.77;26.00;;;;;;;-144.73;100.00;54637.59;5035258;28;20114;-76
2024/01/10 08:04:30;;;;;;;56.20;24.63;;;;;;;-144.73;100.00;54645.78;5036567;28;20025;-71
2024/01/10 08:06:56;;;;;;;58.60;24.97;;;;;;;-144.73;100.00;54645.78;5035426;28;20029;-72
2024/01/10 08:09:23;;;;;;;60.00;25.70;;;;;;;-144.73;100.00;54649.91;5035941;28;20021;-73
2024/01/10 08:11:49;;;;;;;55.97;25.07;;;;;;;-144.73;100.00;54600.63;5035155;28;20041;-72
2024/01/10 08:14:15;;;;;;;58.20;24.80;;;;;;;-144.73;100.00;54594.47;5035556;28;20029;-74
2024/01/10 08:16:41;;;;;;;50.43;24.10;;;;;;;-144.73;100.00;54633.47;5034903;28;20099;-67
2024/01/10 08:19:07;;;;;;;45.33;20.50;;;;;;;-144.73;100.00;54617.06;5036034;28;20439;-66
2024/01/10 08:21:32;;;;;;;51.10;24.53;;;;;;;-144.73;100.00;54580.13;5036394;28;20029;-66
2024/01/10 08:23:58;;;;;;;56.80;23.53;;;;;;;-144.73;100.00;54637.59;5034500;28;20023;-67
2024/01/10 08:26:23;;;;;;;47.87;21.87;;;;;;;-144.73;100.00;54633.47;5030190;28;20088;-67
2024/01/10 08:28:48;;;;;;;50.33;22.90;;;;;;;-144.73;100.00;54654.00;5040601;28;20059;-66
2024/01/10 08:31:16;;;;;;;59.57;24.03;;;;;;;-144.73;100.00;54621.16;5035569;28;20413;-67
2024/01/10 08:33:42;;;;;;;58.30;27.00;;;;;;;-144.73;100.00;54633.47;5037772;28;20039;-68
2024/01/10 08:36:09;;;;;;;52.23;24.10;;;;;;;-144.73;100.00;54621.16;5042425;28;20115;-67
2024/01/10 08:38:35;;;;;;;52.37;23.83;;;;;;;-144.73;100.00;54617.06;5041529;28;20037;-66
2024/01/10 08:41:01;;;;;;;50.60;23.30;;;;;;;-144.73;100.00;54608.84;5036949;28;20043;-68
2024/01/10 08:43:26;;;;;;;51.53;23.43;;;;;;;-144.73;100.00;54606.78;5029362;28;20025;-67
2024/01/10 08:45:52;;;;;;;55.33;24.17;;;;;;;-144.73;100.00;54658.13;5033997;28;20087;-68
2024/01/10 08:48:17;;;;;;;50.57;23.50;;;;;;;-144.73;100.00;54600.63;5035089;28;20107;-67
2024/01/10 08:50:44;;;;;;;53.70;22.30;;;;;;;-144.73;100.00;54674.53;5035017;28;20029;-67
2024/01/10 08:53:10;;;;;;;47.03;22.80;;;;;;;-144.73;100.00;54645.78;5035599;28;20025;-66
2024/01/10 08:55:37;;;;;;;51.30;22.77;;;;;;;-144.73;100.00;54621.16;5036047;28;20025;-67
2024/01/10 08:58:03;;;;;;;50.57;21.67;;;;;;;-144.73;100.00;54633.47;5034294;28;20028;-67
2024/01/10 09:00:28;;;;;;;50.53;24.30;;;;;;;-144.73;100.00;54606.78;5037815;28;20025;-67
2024/01/10 09:02:55;;;;;;;49.23;22.87;;;;;;;-144.73;100.00;54649.91;5036233;28;20025;-67
2024/01/10 09:05:21;;;;;;;54.27;22.53;;;;;;;-144.73;100.00;54649.91;5039926;28;20032;-67
2024/01/10 09:07:47;;;;;;;50.60;23.53;;;;;;;-144.73;100.00;54670.44;5027626;28;20069;-66
2024/01/10 09:10:12;;;;;;;51.03;24.00;;;;;;;-144.73;100.00;54670.44;5035652;28;20029;-68
2024/01/10 09:12:38;;;;;;;57.30;22.77;;;;;;;-144.73;100.00;54649.91;5026544;28;20040;-68
2024/01/10 09:15:03;;;;;;;56.67;27.20;;;;;;;-144.73;100.00;54637.59;5033689;28;20063;-67
2024/01/10 09:17:29;;;;;;;58.77;25.77;;;;;;;-144.73;100.00;54641.69;5051891;28;20052;-67
2024/01/10 09:19:54;;;;;;;59.17;25.73;;;;;;;-144.73;100.00;54617.06;5034820;28;20035;-67
2024/01/10 09:22:20;;;;;;;52.30;23.93;;;;;;;-144.73;100.00;54639.63;5034572;28;20033;-68
2024/01/10 09:24:45;;;;;;;59.97;25.83;;;;;;;-144.73;100.00;54629.38;5032276;28;20039;-66
2024/01/10 09:27:11;;;;;;;57.97;25.73;;;;;;;-144.73;100.00;54629.38;5029035;28;20025;-66
2024/01/10 09:29:36;;;;;;;56.57;25.50;;;;;;;-144.73;100.00;54649.91;5030914;28;20047;-67
2024/01/10 09:32:02;;;;;;;50.87;23.47;;;;;;;-144.73;100.00;54608.84;5031673;28;20056;-68
2024/01/10 09:34:28;;;;;;;46.80;22.10;;;;;;;-144.73;100.00;54617.06;5029922;28;20092;-65
2024/01/10 09:36:53;;;;;;;49.50;23.70;;;;;;;-144.73;100.00;54637.59;5031385;28;20124;-67
2024/01/10 09:39:19;;;;;;;58.17;24.93;;;;;;;-144.73;100.00;54633.47;5032094;28;20024;-66
2024/01/10 09:41:50;;;;;;;54.83;24.43;;;;;;;-144.73;100.00;54645.78;5031902;28;20520;-66
2024/01/10 09:44:18;;;;;;;55.50;25.42;;;;;;;-144.73;100.00;54686.84;5031062;28;20029;-66
2024/01/10 09:46:48;;;;;;;60.43;25.93;;;;;;;-144.73;100.00;54625.28;5028695;28;20052;-67
2024/01/10 09:49:14;;;;;;;55.90;26.40;;;;;;;-144.73;100.00;54633.47;5024850;28;20024;-65
2024/01/10 09:51:39;;;;;;;49.00;23.83;;;;;;;-144.73;100.00;54563.69;5032777;28;20067;-66
2024/01/10 09:54:05;;;;;;;53.17;25.57;;;;;;;-144.73;100.00;54633.47;5024311;28;20680;-66
2024/01/10 09:56:32;;;;;;;57.57;26.30;;;;;;;-144.73;100.00;54625.28;5032481;28;20059;-66
2024/01/10 09:58:58;;;;;;;59.30;25.37;;;;;;;-144.73;100.00;54617.06;5030940;28;20056;-67
2024/01/10 10:01:24;;;;;;;48.57;24.30;;;;;;;-144.73;100.00;54615.00;5025463;28;20095;-65
2024/01/10 10:03:50;;;;;;;45.10;21.90;;;;;;;-144.73;100.00;54633.47;5025957;28;20013;-67
2024/01/10 10:06:16;;;;;;;62.90;25.90;;;;;;;-144.73;100.00;54604.75;5030461;28;20025;-67
2024/01/10 10:08:41;;;;;;;62.80;27.57;;;;;;;-144.73;100.00;54612.97;5031819;28;20017;-67
2024/01/10 10:11:13;;;;;;;51.77;24.10;;;;;;;-144.73;100.00;54625.28;5030081;28;20033;-66
2024/01/10 10:13:41;;;;;;;53.47;23.48;;;;;;;-144.73;100.00;54621.16;5030576;28;20534;-67
2024/01/10 10:16:12;;;;;;;48.03;23.97;;;;;;;-144.73;100.00;54641.69;5030921;28;20033;-66
2024/01/10 10:18:41;;;;;;;52.10;21.17;;;;;;;-144.73;100.00;54641.69;5030940;28;20021;-66
2024/01/10 10:21:09;;;;;;;47.63;21.00;;;;;;;-144.73;100.00;54608.84;5030136;28;20133;-66
2024/01/10 10:23:36;;;;;;;43.73;21.13;;;;;;;-144.73;100.00;54643.75;5031094;28;20029;-66
2024/01/10 10:26:10;;;;;;;49.13;21.90;;;;;;;-144.73;100.00;54633.47;5023606;28;20059;-67
2024/01/10 10:28:36;;;;;;;48.23;21.70;;;;;;;-144.73;100.00;54678.63;5031403;28;20021;-67
2024/01/10 10:31:02;;;;;;;40.63;20.20;;;;;;;-144.73;100.00;54617.06;5030289;28;20037;-66
2024/01/10 10:33:27;;;;;;;42.67;21.63;;;;;;;-144.73;100.00;54571.91;5030760;28;20029;-67
2024/01/10 10:35:53;;;;;;;48.83;20.73;;;;;;;-144.73;100.00;54639.63;5029705;28;20075;-67
2024/01/10 10:38:22;;;;;;;49.93;23.80;;;;;;;-144.73;100.00;54643.75;5031031;28;20029;-65
2024/01/10 10:40:48;;;;;;;48.57;22.03;;;;;;;-144.73;100.00;54649.91;5030613;28;20031;-66
2024/01/10 10:43:16;;;;;;;48.93;23.37;;;;;;;-144.73;100.00;54625.28;5039816;28;20018;-67
2024/01/10 10:45:50;;;;;;;52.53;23.20;;;;;;;-144.73;100.00;54670.44;5023716;28;20033;-66